sensor_id;sensor_type;location;lat;lon;timestamp;temperature;humidity
1476;DHT22;730;48.870;12.542;2023-02-22T00:00:29;6.60;1.00
1476;DHT22;730;48.870;12.542;2023-02-22T00:03:23;6.50;1.00
1476;DHT22;730;48.870;12.542;2023-02-22T00:05:54;6.50;1.00
1476;DHT22;730;48.870;12.542;2023-02-22T00:08:23;6.50;1.00
1476;DHT22;730;48.870;12.542;2023-02-22T00:10:49;6.40;1.00
1476;DHT22;730;48.870;12.542;2023-02-22T00:13:17;6.40;1.00
1476;DHT22;730;48.870;12.542;2023-02-22T00:15:44;6.40;1.00
1476;DHT22;730;48.870;12.542;2023-02-22T00:18:12;6.30;1.00
1476;DHT22;730;48.870;12.542;2023-02-22T00:20:40;6.30;1.00
1476;DHT22;730;48.870;12.542;2023-02-22T00:23:12;6.30;1.00
1476;DHT22;730;48.870;12.542;2023-02-22T00:25:40;6.30;1.00
1476;DHT22;730;48.870;12.542;2023-02-22T00:28:06;6.20;1.00
1476;DHT22;730;48.870;12.542;2023-02-22T00:30:32;6.20;1.00
1476;DHT22;730;48.870;12.542;2023-02-22T00:32:59;6.20;1.00
1476;DHT22;730;48.870;12.542;2023-02-22T00:35:28;6.20;1.00
1476;DHT22;730;48.870;12.542;2023-02-22T00:37:57;6.20;1.00
1476;DHT22;730;48.870;12.542;2023-02-22T00:40:26;6.10;1.00
1476;DHT22;730;48.870;12.542;2023-02-22T00:42:53;6.10;1.00
1476;DHT22;730;48.870;12.542;2023-02-22T00:45:23;6.10;1.00
1476;DHT22;730;48.870;12.542;2023-02-22T00:47:51;6.10;1.00
1476;DHT22;730;48.870;12.542;2023-02-22T00:50:18;6.10;1.00
1476;DHT22;730;48.870;12.542;2023-02-22T00:52:46;6.00;1.00
1476;DHT22;730;48.870;12.542;2023-02-22T00:55:22;6.00;1.00
1476;DHT22;730;48.870;12.542;2023-02-22T00:57:48;6.00;1.00
1476;DHT22;730;48.870;12.542;2023-02-22T01:00:19;5.90;1.00
1476;DHT22;730;48.870;12.542;2023-02-22T01:02:45;5.90;1.00
1476;DHT22;730;48.870;12.542;2023-02-22T01:05:18;5.90;1.00
1476;DHT22;730;48.870;12.542;2023-02-22T01:07:44;5.90;1.00
1476;DHT22;730;48.870;12.542;2023-02-22T01:10:11;5.80;1.00
1476;DHT22;730;48.870;12.542;2023-02-22T01:12:37;5.80;1.00
1476;DHT22;730;48.870;12.542;2023-02-22T01:15:05;5.80;1.00
1476;DHT22;730;48.870;12.542;2023-02-22T01:17:36;5.80;1.00
1476;DHT22;730;48.870;12.542;2023-02-22T01:20:05;5.80;1.00
1476;DHT22;730;48.870;12.542;2023-02-22T01:22:41;5.70;1.00
1476;DHT22;730;48.870;12.542;2023-02-22T01:25:14;5.70;1.00
1476;DHT22;730;48.870;12.542;2023-02-22T01:27:40;5.70;1.00
1476;DHT22;730;48.870;12.542;2023-02-22T01:30:07;5.70;1.00
1476;DHT22;730;48.870;12.542;2023-02-22T01:32:35;5.60;1.00
1476;DHT22;730;48.870;12.542;2023-02-22T01:35:03;5.60;1.00
1476;DHT22;730;48.870;12.542;2023-02-22T01:37:30;5.70;1.00
1476;DHT22;730;48.870;12.542;2023-02-22T01:39:57;5.60;1.00
1476;DHT22;730;48.870;12.542;2023-02-22T01:42:23;5.60;1.00
1476;DHT22;730;48.870;12.542;2023-02-22T01:47:59;5.60;1.00
1476;DHT22;730;48.870;12.542;2023-02-22T01:50:28;5.50;1.00
1476;DHT22;730;48.870;12.542;2023-02-22T01:52:56;5.50;1.00
1476;DHT22;730;48.870;12.542;2023-02-22T01:55:22;5.50;1.00
1476;DHT22;730;48.870;12.542;2023-02-22T01:57:49;5.50;1.00
1476;DHT22;730;48.870;12.542;2023-02-22T02:00:18;5.50;1.00
1476;DHT22;730;48.870;12.542;2023-02-22T02:02:57;5.50;1.00
1476;DHT22;730;48.870;12.542;2023-02-22T02:05:26;5.50;1.00
1476;DHT22;730;48.870;12.542;2023-02-22T02:07:53;5.50;1.00
1476;DHT22;730;48.870;12.542;2023-02-22T02:10:19;5.50;1.00
1476;DHT22;730;48.870;12.542;2023-02-22T02:12:48;5.50;1.00
1476;DHT22;730;48.870;12.542;2023-02-22T02:17:57;5.50;1.00
1476;DHT22;730;48.870;12.542;2023-02-22T02:20:38;5.50;1.00
1476;DHT22;730;48.870;12.542;2023-02-22T02:23:58;5.50;1.00
1476;DHT22;730;48.870;12.542;2023-02-22T02:30:03;5.50;1.00
1476;DHT22;730;48.870;12.542;2023-02-22T02:35:26;5.40;1.00
1476;DHT22;730;48.870;12.542;2023-02-22T02:38:20;5.40;1.00
1476;DHT22;730;48.870;12.542;2023-02-22T02:46:55;5.40;1.00
1476;DHT22;730;48.870;12.542;2023-02-22T02:49:47;5.30;1.00
1476;DHT22;730;48.870;12.542;2023-02-22T02:52:17;5.20;1.00
1476;DHT22;730;48.870;12.542;2023-02-22T02:54:45;5.20;1.00
1476;DHT22;730;48.870;12.542;2023-02-22T02:57:12;5.10;1.00
1476;DHT22;730;48.870;12.542;2023-02-22T02:59:38;5.10;1.00
1476;DHT22;730;48.870;12.542;2023-02-22T03:13:18;4.90;1.00
1476;DHT22;730;48.870;12.542;2023-02-22T03:16:20;4.80;1.00
1476;DHT22;730;48.870;12.542;2023-02-22T03:21:59;4.80;1.30
1476;DHT22;730;48.870;12.542;2023-02-22T03:24:46;4.80;1.70
1476;DHT22;730;48.870;12.542;2023-02-22T03:27:25;4.70;2.20
1476;DHT22;730;48.870;12.542;2023-02-22T03:29:56;4.70;2.60
1476;DHT22;730;48.870;12.542;2023-02-22T03:32:32;4.70;3.10
1476;DHT22;730;48.870;12.542;2023-02-22T03:35:09;4.80;3.10
1476;DHT22;730;48.870;12.542;2023-02-22T03:37:42;4.80;3.40
1476;DHT22;730;48.870;12.542;2023-02-22T03:40:14;4.80;3.40
1476;DHT22;730;48.870;12.542;2023-02-22T03:42:46;4.80;3.70
1476;DHT22;730;48.870;12.542;2023-02-22T03:45:14;4.80;3.80
1476;DHT22;730;48.870;12.542;2023-02-22T03:47:46;4.80;3.70
1476;DHT22;730;48.870;12.542;2023-02-22T03:50:27;4.80;3.60
1476;DHT22;730;48.870;12.542;2023-02-22T03:52:55;4.80;3.60
1476;DHT22;730;48.870;12.542;2023-02-22T03:55:24;4.80;3.60
1476;DHT22;730;48.870;12.542;2023-02-22T03:57:53;4.80;3.50
1476;DHT22;730;48.870;12.542;2023-02-22T04:02:49;4.80;2.90
1476;DHT22;730;48.870;12.542;2023-02-22T04:05:15;4.80;2.80
1476;DHT22;730;48.870;12.542;2023-02-22T04:07:42;4.70;2.70
1476;DHT22;730;48.870;12.542;2023-02-22T04:10:09;4.70;2.70
1476;DHT22;730;48.870;12.542;2023-02-22T04:12:36;4.70;2.80
1476;DHT22;730;48.870;12.542;2023-02-22T04:15:04;4.60;2.70
1476;DHT22;730;48.870;12.542;2023-02-22T04:17:31;4.60;2.50
1476;DHT22;730;48.870;12.542;2023-02-22T04:20:00;4.60;2.60
1476;DHT22;730;48.870;12.542;2023-02-22T04:22:26;4.60;2.30
1476;DHT22;730;48.870;12.542;2023-02-22T04:24:52;4.50;2.30
1476;DHT22;730;48.870;12.542;2023-02-22T04:27:19;4.50;2.30
1476;DHT22;730;48.870;12.542;2023-02-22T04:29:45;4.50;2.40
1476;DHT22;730;48.870;12.542;2023-02-22T04:32:11;4.50;2.60
1476;DHT22;730;48.870;12.542;2023-02-22T04:34:37;4.50;2.90
1476;DHT22;730;48.870;12.542;2023-02-22T04:37:03;4.50;2.90
1476;DHT22;730;48.870;12.542;2023-02-22T04:39:30;4.50;3.20
1476;DHT22;730;48.870;12.542;2023-02-22T04:41:56;4.50;3.40
1476;DHT22;730;48.870;12.542;2023-02-22T04:44:22;4.40;3.70
1476;DHT22;730;48.870;12.542;2023-02-22T04:46:48;4.40;3.90
1476;DHT22;730;48.870;12.542;2023-02-22T04:49:14;4.50;3.90
1476;DHT22;730;48.870;12.542;2023-02-22T04:51:40;4.50;4.10
1476;DHT22;730;48.870;12.542;2023-02-22T04:54:07;4.50;4.30
1476;DHT22;730;48.870;12.542;2023-02-22T04:56:33;4.50;4.40
1476;DHT22;730;48.870;12.542;2023-02-22T04:58:59;4.50;4.60
1476;DHT22;730;48.870;12.542;2023-02-22T05:01:30;4.50;4.70
1476;DHT22;730;48.870;12.542;2023-02-22T05:03:56;4.60;4.60
1476;DHT22;730;48.870;12.542;2023-02-22T05:06:23;4.60;4.60
1476;DHT22;730;48.870;12.542;2023-02-22T05:08:49;4.60;4.40
1476;DHT22;730;48.870;12.542;2023-02-22T05:11:15;4.60;4.50
1476;DHT22;730;48.870;12.542;2023-02-22T05:13:41;4.60;4.40
1476;DHT22;730;48.870;12.542;2023-02-22T05:16:15;4.60;4.30
1476;DHT22;730;48.870;12.542;2023-02-22T05:18:41;4.60;4.10
1476;DHT22;730;48.870;12.542;2023-02-22T05:21:07;4.60;4.00
1476;DHT22;730;48.870;12.542;2023-02-22T05:23:33;4.60;3.90
1476;DHT22;730;48.870;12.542;2023-02-22T05:25:59;4.60;3.70
1476;DHT22;730;48.870;12.542;2023-02-22T05:28:26;4.60;3.50
1476;DHT22;730;48.870;12.542;2023-02-22T05:30:52;4.60;3.30
1476;DHT22;730;48.870;12.542;2023-02-22T05:33:18;4.60;2.90
1476;DHT22;730;48.870;12.542;2023-02-22T05:35:44;4.50;2.80
1476;DHT22;730;48.870;12.542;2023-02-22T05:38:14;4.50;2.40
1476;DHT22;730;48.870;12.542;2023-02-22T05:40:41;4.50;2.20
1476;DHT22;730;48.870;12.542;2023-02-22T05:43:07;4.50;1.90
1476;DHT22;730;48.870;12.542;2023-02-22T05:45:34;4.40;1.60
1476;DHT22;730;48.870;12.542;2023-02-22T05:48:01;4.40;1.40
1476;DHT22;730;48.870;12.542;2023-02-22T05:50:28;4.40;1.30
1476;DHT22;730;48.870;12.542;2023-02-22T05:52:54;4.40;1.00
1476;DHT22;730;48.870;12.542;2023-02-22T05:55:21;4.30;1.00
1476;DHT22;730;48.870;12.542;2023-02-22T05:57:48;4.30;1.00
1476;DHT22;730;48.870;12.542;2023-02-22T06:00:20;4.30;1.00
1476;DHT22;730;48.870;12.542;2023-02-22T06:02:56;4.30;1.00
1476;DHT22;730;48.870;12.542;2023-02-22T06:05:23;4.30;1.10
1476;DHT22;730;48.870;12.542;2023-02-22T06:07:49;4.30;1.40
1476;DHT22;730;48.870;12.542;2023-02-22T06:10:15;4.30;1.60
1476;DHT22;730;48.870;12.542;2023-02-22T06:12:41;4.20;2.00
1476;DHT22;730;48.870;12.542;2023-02-22T06:15:09;4.30;2.00
1476;DHT22;730;48.870;12.542;2023-02-22T06:17:35;4.30;2.10
1476;DHT22;730;48.870;12.542;2023-02-22T06:20:02;4.20;2.20
1476;DHT22;730;48.870;12.542;2023-02-22T06:22:28;4.20;2.20
1476;DHT22;730;48.870;12.542;2023-02-22T06:24:54;4.20;2.20
1476;DHT22;730;48.870;12.542;2023-02-22T06:27:20;4.20;2.00
1476;DHT22;730;48.870;12.542;2023-02-22T06:29:46;4.20;2.10
1476;DHT22;730;48.870;12.542;2023-02-22T06:32:13;4.20;2.00
1476;DHT22;730;48.870;12.542;2023-02-22T06:34:39;4.20;2.20
1476;DHT22;730;48.870;12.542;2023-02-22T06:37:08;4.20;2.20
1476;DHT22;730;48.870;12.542;2023-02-22T06:39:41;4.20;2.00
1476;DHT22;730;48.870;12.542;2023-02-22T06:42:07;4.20;1.90
1476;DHT22;730;48.870;12.542;2023-02-22T06:44:33;4.20;2.00
1476;DHT22;730;48.870;12.542;2023-02-22T06:46:59;4.20;2.10
1476;DHT22;730;48.870;12.542;2023-02-22T06:49:26;4.20;2.20
1476;DHT22;730;48.870;12.542;2023-02-22T06:51:53;4.20;2.50
1476;DHT22;730;48.870;12.542;2023-02-22T06:54:20;4.20;2.50
1476;DHT22;730;48.870;12.542;2023-02-22T06:56:46;4.20;2.60
1476;DHT22;730;48.870;12.542;2023-02-22T06:59:15;4.20;2.80
1476;DHT22;730;48.870;12.542;2023-02-22T07:01:42;4.20;3.30
1476;DHT22;730;48.870;12.542;2023-02-22T07:04:08;4.20;3.50
1476;DHT22;730;48.870;12.542;2023-02-22T07:06:34;4.30;3.90
1476;DHT22;730;48.870;12.542;2023-02-22T07:09:01;4.30;3.90
1476;DHT22;730;48.870;12.542;2023-02-22T07:11:27;4.40;4.10
1476;DHT22;730;48.870;12.542;2023-02-22T07:13:53;4.40;4.00
1476;DHT22;730;48.870;12.542;2023-02-22T07:16:20;4.50;3.80
1476;DHT22;730;48.870;12.542;2023-02-22T07:18:46;4.60;5.30
1476;DHT22;730;48.870;12.542;2023-02-22T07:21:12;4.70;6.10
1476;DHT22;730;48.870;12.542;2023-02-22T07:23:38;4.70;6.30
1476;DHT22;730;48.870;12.542;2023-02-22T07:26:04;4.90;5.10
1476;DHT22;730;48.870;12.542;2023-02-22T07:28:30;4.90;5.50
1476;DHT22;730;48.870;12.542;2023-02-22T07:30:56;5.10;4.90
1476;DHT22;730;48.870;12.542;2023-02-22T07:33:23;5.20;5.50
1476;DHT22;730;48.870;12.542;2023-02-22T07:35:50;5.30;4.50
1476;DHT22;730;48.870;12.542;2023-02-22T07:38:18;5.40;3.20
1476;DHT22;730;48.870;12.542;2023-02-22T07:40:44;5.50;2.30
1476;DHT22;730;48.870;12.542;2023-02-22T07:45:40;5.70;1.10
1476;DHT22;730;48.870;12.542;2023-02-22T07:48:07;5.80;1.10
1476;DHT22;730;48.870;12.542;2023-02-22T07:50:34;5.90;1.00
1476;DHT22;730;48.870;12.542;2023-02-22T07:53:05;6.00;1.00
1476;DHT22;730;48.870;12.542;2023-02-22T07:55:32;6.10;1.00
1476;DHT22;730;48.870;12.542;2023-02-22T07:58:01;6.20;1.00
1476;DHT22;730;48.870;12.542;2023-02-22T08:00:30;6.30;1.00
1476;DHT22;730;48.870;12.542;2023-02-22T08:02:58;6.40;1.00
1476;DHT22;730;48.870;12.542;2023-02-22T08:05:28;6.50;1.00
1476;DHT22;730;48.870;12.542;2023-02-22T08:07:54;6.70;1.00
1476;DHT22;730;48.870;12.542;2023-02-22T08:10:22;6.80;1.00
1476;DHT22;730;48.870;12.542;2023-02-22T08:12:50;6.90;1.00
1476;DHT22;730;48.870;12.542;2023-02-22T08:15:22;7.00;1.00
1476;DHT22;730;48.870;12.542;2023-02-22T08:17:49;7.20;1.00
1476;DHT22;730;48.870;12.542;2023-02-22T08:20:16;7.30;1.00
1476;DHT22;730;48.870;12.542;2023-02-22T08:22:43;7.40;1.00
1476;DHT22;730;48.870;12.542;2023-02-22T08:25:09;7.60;1.00
1476;DHT22;730;48.870;12.542;2023-02-22T08:27:35;7.70;1.00
1476;DHT22;730;48.870;12.542;2023-02-22T08:30:02;7.90;1.00
1476;DHT22;730;48.870;12.542;2023-02-22T08:32:28;8.10;1.00
1476;DHT22;730;48.870;12.542;2023-02-22T08:34:54;8.40;1.00
1476;DHT22;730;48.870;12.542;2023-02-22T08:37:20;8.70;1.00
1476;DHT22;730;48.870;12.542;2023-02-22T08:39:46;9.10;1.00
1476;DHT22;730;48.870;12.542;2023-02-22T08:42:12;9.50;1.00
1476;DHT22;730;48.870;12.542;2023-02-22T08:44:48;10.00;1.00
1476;DHT22;730;48.870;12.542;2023-02-22T08:47:14;10.40;1.00
1476;DHT22;730;48.870;12.542;2023-02-22T08:49:40;10.90;1.00
1476;DHT22;730;48.870;12.542;2023-02-22T08:52:07;11.30;1.00
1476;DHT22;730;48.870;12.542;2023-02-22T08:54:33;11.70;1.00
1476;DHT22;730;48.870;12.542;2023-02-22T08:56:59;11.90;1.00
1476;DHT22;730;48.870;12.542;2023-02-22T08:59:25;12.10;1.00
1476;DHT22;730;48.870;12.542;2023-02-22T09:01:52;12.30;1.00
1476;DHT22;730;48.870;12.542;2023-02-22T09:04:18;12.50;1.00
1476;DHT22;730;48.870;12.542;2023-02-22T09:06:44;12.70;1.00
1476;DHT22;730;48.870;12.542;2023-02-22T09:09:13;12.90;1.00
1476;DHT22;730;48.870;12.542;2023-02-22T09:11:39;13.10;1.00
1476;DHT22;730;48.870;12.542;2023-02-22T09:14:05;13.30;1.00
1476;DHT22;730;48.870;12.542;2023-02-22T09:16:31;13.50;1.00
1476;DHT22;730;48.870;12.542;2023-02-22T09:18:57;13.70;1.00
1476;DHT22;730;48.870;12.542;2023-02-22T09:21:23;13.90;1.00
1476;DHT22;730;48.870;12.542;2023-02-22T09:23:49;14.00;1.00
1476;DHT22;730;48.870;12.542;2023-02-22T09:26:15;14.20;1.00
1476;DHT22;730;48.870;12.542;2023-02-22T09:28:41;14.30;1.00
1476;DHT22;730;48.870;12.542;2023-02-22T09:31:08;14.50;1.00
1476;DHT22;730;48.870;12.542;2023-02-22T09:33:34;14.60;1.00
1476;DHT22;730;48.870;12.542;2023-02-22T09:36:00;14.70;1.00
1476;DHT22;730;48.870;12.542;2023-02-22T09:38:27;14.80;1.00
1476;DHT22;730;48.870;12.542;2023-02-22T09:41:21;14.90;1.00
1476;DHT22;730;48.870;12.542;2023-02-22T09:44:19;15.10;1.00
1476;DHT22;730;48.870;12.542;2023-02-22T09:46:47;15.20;1.00
1476;DHT22;730;48.870;12.542;2023-02-22T09:51:54;15.40;1.00
1476;DHT22;730;48.870;12.542;2023-02-22T09:57:05;15.60;1.00
1476;DHT22;730;48.870;12.542;2023-02-22T09:59:39;15.70;1.00
1476;DHT22;730;48.870;12.542;2023-02-22T10:02:24;15.80;1.00
1476;DHT22;730;48.870;12.542;2023-02-22T10:04:56;16.00;1.00
1476;DHT22;730;48.870;12.542;2023-02-22T10:07:35;16.10;1.00
1476;DHT22;730;48.870;12.542;2023-02-22T10:10:04;16.20;1.00
1476;DHT22;730;48.870;12.542;2023-02-22T10:13:00;16.20;1.00
1476;DHT22;730;48.870;12.542;2023-02-22T10:21:40;16.30;1.00
1476;DHT22;730;48.870;12.542;2023-02-22T10:26:48;16.40;1.00
1476;DHT22;730;48.870;12.542;2023-02-22T10:31:47;16.60;1.00
1476;DHT22;730;48.870;12.542;2023-02-22T10:34:18;16.60;1.00
1476;DHT22;730;48.870;12.542;2023-02-22T10:36:48;16.60;1.00
1476;DHT22;730;48.870;12.542;2023-02-22T10:39:33;16.60;1.00
1476;DHT22;730;48.870;12.542;2023-02-22T10:42:04;16.60;1.00
1476;DHT22;730;48.870;12.542;2023-02-22T10:44:32;16.50;1.00
1476;DHT22;730;48.870;12.542;2023-02-22T10:47:01;16.50;1.00
1476;DHT22;730;48.870;12.542;2023-02-22T10:49:39;16.50;1.00
1476;DHT22;730;48.870;12.542;2023-02-22T10:52:22;16.50;1.00
1476;DHT22;730;48.870;12.542;2023-02-22T10:54:50;16.60;1.00
1476;DHT22;730;48.870;12.542;2023-02-22T10:57:21;16.50;1.00
1476;DHT22;730;48.870;12.542;2023-02-22T10:59:48;16.50;1.00
1476;DHT22;730;48.870;12.542;2023-02-22T11:04:49;16.60;1.00
1476;DHT22;730;48.870;12.542;2023-02-22T11:07:22;16.60;1.00
1476;DHT22;730;48.870;12.542;2023-02-22T11:09:55;16.60;1.00
1476;DHT22;730;48.870;12.542;2023-02-22T11:15:18;16.70;1.00
1476;DHT22;730;48.870;12.542;2023-02-22T11:17:46;16.70;1.00
1476;DHT22;730;48.870;12.542;2023-02-22T11:20:38;16.70;1.00
1476;DHT22;730;48.870;12.542;2023-02-22T11:23:05;16.80;1.00
1476;DHT22;730;48.870;12.542;2023-02-22T11:25:35;16.90;1.00
1476;DHT22;730;48.870;12.542;2023-02-22T11:30:50;17.10;1.00
1476;DHT22;730;48.870;12.542;2023-02-22T11:36:28;17.30;1.00
1476;DHT22;730;48.870;12.542;2023-02-22T11:38:56;17.40;1.00
1476;DHT22;730;48.870;12.542;2023-02-22T11:41:29;17.40;1.00
1476;DHT22;730;48.870;12.542;2023-02-22T11:44:12;17.40;1.00
1476;DHT22;730;48.870;12.542;2023-02-22T11:46:40;17.60;1.00
1476;DHT22;730;48.870;12.542;2023-02-22T11:49:10;17.60;1.00
1476;DHT22;730;48.870;12.542;2023-02-22T11:51:47;17.70;1.00
1476;DHT22;730;48.870;12.542;2023-02-22T11:54:43;17.70;1.00
1476;DHT22;730;48.870;12.542;2023-02-22T11:57:33;17.80;1.00
1476;DHT22;730;48.870;12.542;2023-02-22T12:00:39;18.00;1.00
1476;DHT22;730;48.870;12.542;2023-02-22T12:03:37;18.00;1.00
1476;DHT22;730;48.870;12.542;2023-02-22T12:06:29;18.10;1.00
1476;DHT22;730;48.870;12.542;2023-02-22T12:19:49;18.40;1.00
1476;DHT22;730;48.870;12.542;2023-02-22T12:22:33;18.50;1.00
1476;DHT22;730;48.870;12.542;2023-02-22T12:25:21;18.60;1.00
1476;DHT22;730;48.870;12.542;2023-02-22T12:27:54;18.70;1.00
1476;DHT22;730;48.870;12.542;2023-02-22T12:30:28;18.70;1.00
1476;DHT22;730;48.870;12.542;2023-02-22T12:33:02;18.70;1.00
1476;DHT22;730;48.870;12.542;2023-02-22T12:35:33;18.70;1.00
1476;DHT22;730;48.870;12.542;2023-02-22T12:43:18;18.70;1.00
1476;DHT22;730;48.870;12.542;2023-02-22T12:46:01;18.90;1.00
1476;DHT22;730;48.870;12.542;2023-02-22T12:48:37;19.00;1.00
1476;DHT22;730;48.870;12.542;2023-02-22T12:53:35;19.30;1.00
1476;DHT22;730;48.870;12.542;2023-02-22T12:58:57;19.70;1.00
1476;DHT22;730;48.870;12.542;2023-02-22T13:01:35;19.80;1.00
1476;DHT22;730;48.870;12.542;2023-02-22T13:04:02;19.90;1.00
1476;DHT22;730;48.870;12.542;2023-02-22T13:06:43;20.00;1.00
1476;DHT22;730;48.870;12.542;2023-02-22T13:11:56;20.30;1.00
1476;DHT22;730;48.870;12.542;2023-02-22T13:17:40;20.50;1.00
1476;DHT22;730;48.870;12.542;2023-02-22T13:20:33;20.70;1.00
1476;DHT22;730;48.870;12.542;2023-02-22T13:23:04;20.80;1.00
1476;DHT22;730;48.870;12.542;2023-02-22T13:25:46;20.80;1.00
1476;DHT22;730;48.870;12.542;2023-02-22T13:28:45;20.90;1.00
1476;DHT22;730;48.870;12.542;2023-02-22T13:36:50;21.20;1.00
1476;DHT22;730;48.870;12.542;2023-02-22T13:48:18;21.60;1.00
1476;DHT22;730;48.870;12.542;2023-02-22T13:51:06;21.90;1.00
1476;DHT22;730;48.870;12.542;2023-02-22T13:56:15;22.30;1.00
1476;DHT22;730;48.870;12.542;2023-02-22T13:58:49;22.50;1.00
1476;DHT22;730;48.870;12.542;2023-02-22T14:06:44;22.90;1.00
1476;DHT22;730;48.870;12.542;2023-02-22T14:09:44;23.00;1.00
1476;DHT22;730;48.870;12.542;2023-02-22T14:22:40;23.70;1.00
1476;DHT22;730;48.870;12.542;2023-02-22T14:28:03;23.80;1.00
1476;DHT22;730;48.870;12.542;2023-02-22T14:30:33;23.80;1.00
1476;DHT22;730;48.870;12.542;2023-02-22T14:32:59;23.70;1.00
1476;DHT22;730;48.870;12.542;2023-02-22T14:35:35;23.70;1.00
1476;DHT22;730;48.870;12.542;2023-02-22T14:38:09;23.70;1.00
1476;DHT22;730;48.870;12.542;2023-02-22T14:40:39;23.70;1.00
1476;DHT22;730;48.870;12.542;2023-02-22T14:43:17;24.10;1.00
1476;DHT22;730;48.870;12.542;2023-02-22T14:46:04;25.00;1.00
1476;DHT22;730;48.870;12.542;2023-02-22T14:48:36;26.20;1.00
1476;DHT22;730;48.870;12.542;2023-02-22T14:51:21;26.70;1.00
1476;DHT22;730;48.870;12.542;2023-02-22T14:54:47;26.80;1.00
1476;DHT22;730;48.870;12.542;2023-02-22T14:57:11;26.70;1.00
1476;DHT22;730;48.870;12.542;2023-02-22T14:59:56;26.30;1.00
1476;DHT22;730;48.870;12.542;2023-02-22T15:02:26;25.90;1.00
1476;DHT22;730;48.870;12.542;2023-02-22T15:04:53;25.30;1.00
1476;DHT22;730;48.870;12.542;2023-02-22T15:07:24;24.80;1.00
1476;DHT22;730;48.870;12.542;2023-02-22T15:10:16;24.10;1.00
1476;DHT22;730;48.870;12.542;2023-02-22T15:12:54;23.60;1.00
1476;DHT22;730;48.870;12.542;2023-02-22T15:18:16;22.60;1.00
1476;DHT22;730;48.870;12.542;2023-02-22T15:20:43;22.30;1.00
1476;DHT22;730;48.870;12.542;2023-02-22T15:23:14;22.00;1.00
1476;DHT22;730;48.870;12.542;2023-02-22T15:25:46;21.80;1.00
1476;DHT22;730;48.870;12.542;2023-02-22T15:28:13;21.60;1.00
1476;DHT22;730;48.870;12.542;2023-02-22T15:30:40;21.50;1.00
1476;DHT22;730;48.870;12.542;2023-02-22T15:33:18;21.30;1.00
1476;DHT22;730;48.870;12.542;2023-02-22T15:35:55;21.30;1.00
1476;DHT22;730;48.870;12.542;2023-02-22T15:38:29;21.40;1.00
1476;DHT22;730;48.870;12.542;2023-02-22T15:41:04;21.50;1.00
1476;DHT22;730;48.870;12.542;2023-02-22T15:43:30;21.60;1.00
1476;DHT22;730;48.870;12.542;2023-02-22T15:46:07;21.80;1.00
1476;DHT22;730;48.870;12.542;2023-02-22T15:48:34;21.90;1.00
1476;DHT22;730;48.870;12.542;2023-02-22T15:51:08;21.80;1.00
1476;DHT22;730;48.870;12.542;2023-02-22T15:53:45;21.80;1.00
1476;DHT22;730;48.870;12.542;2023-02-22T15:56:15;21.50;1.00
1476;DHT22;730;48.870;12.542;2023-02-22T15:58:43;21.30;1.00
1476;DHT22;730;48.870;12.542;2023-02-22T16:01:13;21.10;1.00
1476;DHT22;730;48.870;12.542;2023-02-22T16:03:48;20.90;1.00
1476;DHT22;730;48.870;12.542;2023-02-22T16:08:54;20.40;1.00
1476;DHT22;730;48.870;12.542;2023-02-22T16:11:33;20.20;1.00
1476;DHT22;730;48.870;12.542;2023-02-22T16:14:05;19.90;1.00
1476;DHT22;730;48.870;12.542;2023-02-22T16:16:33;19.70;1.00
1476;DHT22;730;48.870;12.542;2023-02-22T16:19:31;19.50;1.00
1476;DHT22;730;48.870;12.542;2023-02-22T16:24:52;19.00;1.00
1476;DHT22;730;48.870;12.542;2023-02-22T16:27:23;18.80;1.00
1476;DHT22;730;48.870;12.542;2023-02-22T16:30:01;18.70;1.00
1476;DHT22;730;48.870;12.542;2023-02-22T16:32:27;18.50;1.00
1476;DHT22;730;48.870;12.542;2023-02-22T16:34:53;18.30;1.00
1476;DHT22;730;48.870;12.542;2023-02-22T16:37:20;18.10;1.00
1476;DHT22;730;48.870;12.542;2023-02-22T16:39:47;18.00;1.00
1476;DHT22;730;48.870;12.542;2023-02-22T16:42:16;17.80;1.00
1476;DHT22;730;48.870;12.542;2023-02-22T16:44:50;17.60;1.00
1476;DHT22;730;48.870;12.542;2023-02-22T16:47:17;17.50;1.00
1476;DHT22;730;48.870;12.542;2023-02-22T16:49:46;17.40;1.00
1476;DHT22;730;48.870;12.542;2023-02-22T16:52:12;17.20;1.00
1476;DHT22;730;48.870;12.542;2023-02-22T16:54:43;17.10;1.00
1476;DHT22;730;48.870;12.542;2023-02-22T16:57:17;17.00;1.00
1476;DHT22;730;48.870;12.542;2023-02-22T16:59:44;16.90;1.00
1476;DHT22;730;48.870;12.542;2023-02-22T17:02:13;16.70;1.00
1476;DHT22;730;48.870;12.542;2023-02-22T17:04:40;16.60;1.00
1476;DHT22;730;48.870;12.542;2023-02-22T17:07:08;16.50;1.00
1476;DHT22;730;48.870;12.542;2023-02-22T17:09:34;16.40;1.00
1476;DHT22;730;48.870;12.542;2023-02-22T17:12:01;16.30;1.00
1476;DHT22;730;48.870;12.542;2023-02-22T17:14:30;16.20;1.00
1476;DHT22;730;48.870;12.542;2023-02-22T17:16:58;16.10;1.00
1476;DHT22;730;48.870;12.542;2023-02-22T17:19:25;16.00;1.00
1476;DHT22;730;48.870;12.542;2023-02-22T17:21:51;15.90;1.00
1476;DHT22;730;48.870;12.542;2023-02-22T17:24:21;15.80;1.00
1476;DHT22;730;48.870;12.542;2023-02-22T17:26:48;15.80;1.00
1476;DHT22;730;48.870;12.542;2023-02-22T17:29:14;15.70;1.00
1476;DHT22;730;48.870;12.542;2023-02-22T17:31:42;15.60;1.00
1476;DHT22;730;48.870;12.542;2023-02-22T17:34:08;15.50;1.00
1476;DHT22;730;48.870;12.542;2023-02-22T17:36:34;15.40;1.00
1476;DHT22;730;48.870;12.542;2023-02-22T17:39:04;15.40;1.00
1476;DHT22;730;48.870;12.542;2023-02-22T17:41:30;15.20;1.00
1476;DHT22;730;48.870;12.542;2023-02-22T17:43:56;15.20;1.00
1476;DHT22;730;48.870;12.542;2023-02-22T17:46:25;15.10;1.00
1476;DHT22;730;48.870;12.542;2023-02-22T17:48:51;15.00;1.00
1476;DHT22;730;48.870;12.542;2023-02-22T17:51:22;14.90;1.00
1476;DHT22;730;48.870;12.542;2023-02-22T17:53:49;14.80;1.00
1476;DHT22;730;48.870;12.542;2023-02-22T17:56:16;14.70;1.00
1476;DHT22;730;48.870;12.542;2023-02-22T17:58:46;14.60;1.00
1476;DHT22;730;48.870;12.542;2023-02-22T18:01:32;14.60;1.00
1476;DHT22;730;48.870;12.542;2023-02-22T18:04:01;14.50;1.00
1476;DHT22;730;48.870;12.542;2023-02-22T18:06:28;14.40;1.00
1476;DHT22;730;48.870;12.542;2023-02-22T18:08:56;14.40;1.00
1476;DHT22;730;48.870;12.542;2023-02-22T18:11:23;14.30;1.00
1476;DHT22;730;48.870;12.542;2023-02-22T18:13:55;14.20;1.00
1476;DHT22;730;48.870;12.542;2023-02-22T18:16:21;14.10;1.00
1476;DHT22;730;48.870;12.542;2023-02-22T18:18:48;14.10;1.00
1476;DHT22;730;48.870;12.542;2023-02-22T18:21:14;14.00;1.00
1476;DHT22;730;48.870;12.542;2023-02-22T18:23:41;14.00;1.00
1476;DHT22;730;48.870;12.542;2023-02-22T18:26:18;13.90;1.00
1476;DHT22;730;48.870;12.542;2023-02-22T18:28:45;13.90;1.00
1476;DHT22;730;48.870;12.542;2023-02-22T18:31:15;13.80;1.00
1476;DHT22;730;48.870;12.542;2023-02-22T18:33:46;13.70;1.00
1476;DHT22;730;48.870;12.542;2023-02-22T18:36:13;13.60;1.00
1476;DHT22;730;48.870;12.542;2023-02-22T18:38:41;13.60;1.00
1476;DHT22;730;48.870;12.542;2023-02-22T18:41:13;13.50;1.00
1476;DHT22;730;48.870;12.542;2023-02-22T18:43:39;13.40;1.00
1476;DHT22;730;48.870;12.542;2023-02-22T18:46:17;13.30;1.00
1476;DHT22;730;48.870;12.542;2023-02-22T18:48:45;13.30;1.00
1476;DHT22;730;48.870;12.542;2023-02-22T18:51:14;13.20;1.00
1476;DHT22;730;48.870;12.542;2023-02-22T18:53:41;13.10;1.00
1476;DHT22;730;48.870;12.542;2023-02-22T18:56:11;13.00;1.00
1476;DHT22;730;48.870;12.542;2023-02-22T18:58:37;12.90;1.00
1476;DHT22;730;48.870;12.542;2023-02-22T19:01:05;12.90;1.00
1476;DHT22;730;48.870;12.542;2023-02-22T19:03:33;12.80;1.00
1476;DHT22;730;48.870;12.542;2023-02-22T19:06:04;12.70;1.00